sensor_id;sensor_type;location;lat;lon;timestamp;P1;durP1;ratioP1;P2;durP2;ratioP2
44214;SDS011;29884;47.450;19.124;2022-12-11T00:02:17;3.60;;;2.20;;
44214;SDS011;29884;47.450;19.124;2022-12-11T00:04:42;2.75;;;1.92;;
44214;SDS011;29884;47.450;19.124;2022-12-11T00:07:08;5.32;;;2.42;;
44214;SDS011;29884;47.450;19.124;2022-12-11T00:09:34;5.03;;;2.53;;
44214;SDS011;29884;47.450;19.124;2022-12-11T00:11:59;3.17;;;2.30;;
44214;SDS011;29884;47.450;19.124;2022-12-11T00:14:26;4.78;;;2.28;;
44214;SDS011;29884;47.450;19.124;2022-12-11T00:16:53;3.80;;;2.15;;
44214;SDS011;29884;47.450;19.124;2022-12-11T00:19:19;3.97;;;2.30;;
44214;SDS011;29884;47.450;19.124;2022-12-11T00:21:44;4.63;;;2.30;;
44214;SDS011;29884;47.450;19.124;2022-12-11T00:24:10;5.22;;;2.63;;
44214;SDS011;29884;47.450;19.124;2022-12-11T00:26:36;4.03;;;2.20;;
44214;SDS011;29884;47.450;19.124;2022-12-11T00:29:02;3.83;;;2.28;;
44214;SDS011;29884;47.450;19.124;2022-12-11T00:31:28;4.13;;;2.55;;
44214;SDS011;29884;47.450;19.124;2022-12-11T00:33:54;3.88;;;2.58;;
44214;SDS011;29884;47.450;19.124;2022-12-11T00:36:21;4.20;;;2.40;;
44214;SDS011;29884;47.450;19.124;2022-12-11T00:38:49;4.70;;;2.50;;
44214;SDS011;29884;47.450;19.124;2022-12-11T00:41:15;3.67;;;2.65;;
44214;SDS011;29884;47.450;19.124;2022-12-11T00:43:42;4.57;;;2.53;;
44214;SDS011;29884;47.450;19.124;2022-12-11T00:46:08;4.95;;;3.30;;
44214;SDS011;29884;47.450;19.124;2022-12-11T00:48:34;5.45;;;3.60;;
44214;SDS011;29884;47.450;19.124;2022-12-11T00:51:00;7.45;;;3.80;;
44214;SDS011;29884;47.450;19.124;2022-12-11T00:53:26;5.78;;;3.63;;
44214;SDS011;29884;47.450;19.124;2022-12-11T00:55:52;6.82;;;4.10;;
44214;SDS011;29884;47.450;19.124;2022-12-11T00:58:17;9.50;;;4.30;;
44214;SDS011;29884;47.450;19.124;2022-12-11T01:00:43;8.25;;;5.43;;
44214;SDS011;29884;47.450;19.124;2022-12-11T01:03:09;8.23;;;5.10;;
44214;SDS011;29884;47.450;19.124;2022-12-11T01:05:38;6.63;;;4.70;;
44214;SDS011;29884;47.450;19.124;2022-12-11T01:08:03;6.70;;;4.45;;
44214;SDS011;29884;47.450;19.124;2022-12-11T01:10:29;6.97;;;4.18;;
44214;SDS011;29884;47.450;19.124;2022-12-11T01:12:57;9.07;;;4.45;;
44214;SDS011;29884;47.450;19.124;2022-12-11T01:15:26;8.13;;;5.32;;
44214;SDS011;29884;47.450;19.124;2022-12-11T01:17:54;7.80;;;5.07;;
44214;SDS011;29884;47.450;19.124;2022-12-11T01:20:21;7.03;;;4.65;;
44214;SDS011;29884;47.450;19.124;2022-12-11T01:22:49;8.98;;;5.28;;
44214;SDS011;29884;47.450;19.124;2022-12-11T01:25:16;7.05;;;4.57;;
44214;SDS011;29884;47.450;19.124;2022-12-11T01:27:42;9.38;;;4.72;;
44214;SDS011;29884;47.450;19.124;2022-12-11T01:30:08;7.18;;;4.43;;
44214;SDS011;29884;47.450;19.124;2022-12-11T01:32:34;6.70;;;4.47;;
44214;SDS011;29884;47.450;19.124;2022-12-11T01:35:04;7.07;;;4.05;;
44214;SDS011;29884;47.450;19.124;2022-12-11T01:37:31;7.03;;;4.53;;
44214;SDS011;29884;47.450;19.124;2022-12-11T01:39:57;7.22;;;4.00;;
44214;SDS011;29884;47.450;19.124;2022-12-11T01:42:24;5.95;;;3.95;;
44214;SDS011;29884;47.450;19.124;2022-12-11T01:47:15;5.88;;;3.35;;
44214;SDS011;29884;47.450;19.124;2022-12-11T01:49:41;6.05;;;3.60;;
44214;SDS011;29884;47.450;19.124;2022-12-11T01:52:09;4.80;;;3.10;;
44214;SDS011;29884;47.450;19.124;2022-12-11T01:54:43;6.43;;;3.95;;
44214;SDS011;29884;47.450;19.124;2022-12-11T01:57:09;6.07;;;3.30;;
44214;SDS011;29884;47.450;19.124;2022-12-11T01:59:37;5.95;;;3.50;;
44214;SDS011;29884;47.450;19.124;2022-12-11T02:04:42;4.97;;;2.95;;
44214;SDS011;29884;47.450;19.124;2022-12-11T02:07:09;4.13;;;2.75;;
44214;SDS011;29884;47.450;19.124;2022-12-11T02:09:36;5.43;;;2.63;;
44214;SDS011;29884;47.450;19.124;2022-12-11T02:14:44;4.82;;;2.70;;
44214;SDS011;29884;47.450;19.124;2022-12-11T02:17:37;6.35;;;2.40;;
44214;SDS011;29884;47.450;19.124;2022-12-11T02:20:35;4.15;;;2.28;;
44214;SDS011;29884;47.450;19.124;2022-12-11T02:29:25;3.97;;;1.83;;
44214;SDS011;29884;47.450;19.124;2022-12-11T02:32:21;3.47;;;1.70;;
44214;SDS011;29884;47.450;19.124;2022-12-11T02:37:46;3.97;;;1.98;;
44214;SDS011;29884;47.450;19.124;2022-12-11T02:40:16;3.47;;;2.10;;
44214;SDS011;29884;47.450;19.124;2022-12-11T02:42:45;3.50;;;1.70;;
44214;SDS011;29884;47.450;19.124;2022-12-11T02:45:12;3.90;;;1.98;;
44214;SDS011;29884;47.450;19.124;2022-12-11T02:47:39;3.47;;;2.08;;
44214;SDS011;29884;47.450;19.124;2022-12-11T02:50:08;3.53;;;2.00;;
44214;SDS011;29884;47.450;19.124;2022-12-11T02:52:38;3.42;;;1.52;;
44214;SDS011;29884;47.450;19.124;2022-12-11T02:55:05;2.92;;;1.58;;
44214;SDS011;29884;47.450;19.124;2022-12-11T02:57:50;1.92;;;1.23;;
44214;SDS011;29884;47.450;19.124;2022-12-11T03:00:17;2.47;;;1.33;;
44214;SDS011;29884;47.450;19.124;2022-12-11T03:02:43;3.00;;;1.40;;
44214;SDS011;29884;47.450;19.124;2022-12-11T03:05:10;2.67;;;1.27;;
44214;SDS011;29884;47.450;19.124;2022-12-11T03:07:38;1.67;;;1.02;;
44214;SDS011;29884;47.450;19.124;2022-12-11T03:10:06;2.67;;;1.30;;
44214;SDS011;29884;47.450;19.124;2022-12-11T03:12:35;1.73;;;1.10;;
44214;SDS011;29884;47.450;19.124;2022-12-11T03:15:05;1.90;;;0.95;;
44214;SDS011;29884;47.450;19.124;2022-12-11T03:20:13;2.08;;;1.10;;
44214;SDS011;29884;47.450;19.124;2022-12-11T03:23:25;2.47;;;1.27;;
44214;SDS011;29884;47.450;19.124;2022-12-11T03:26:02;2.20;;;1.00;;
44214;SDS011;29884;47.450;19.124;2022-12-11T03:28:31;2.55;;;1.00;;
44214;SDS011;29884;47.450;19.124;2022-12-11T03:31:02;1.60;;;1.00;;
44214;SDS011;29884;47.450;19.124;2022-12-11T03:33:35;2.25;;;1.02;;
44214;SDS011;29884;47.450;19.124;2022-12-11T03:36:05;1.92;;;1.08;;
44214;SDS011;29884;47.450;19.124;2022-12-11T03:38:35;1.63;;;0.85;;
44214;SDS011;29884;47.450;19.124;2022-12-11T03:41:21;1.92;;;1.00;;
44214;SDS011;29884;47.450;19.124;2022-12-11T03:43:50;2.30;;;0.82;;
44214;SDS011;29884;47.450;19.124;2022-12-11T03:46:19;1.98;;;0.90;;
44214;SDS011;29884;47.450;19.124;2022-12-11T03:48:48;1.30;;;0.70;;
44214;SDS011;29884;47.450;19.124;2022-12-11T03:51:15;2.10;;;0.90;;
44214;SDS011;29884;47.450;19.124;2022-12-11T03:53:42;1.65;;;0.80;;
44214;SDS011;29884;47.450;19.124;2022-12-11T03:56:09;1.80;;;0.90;;
44214;SDS011;29884;47.450;19.124;2022-12-11T03:58:37;3.65;;;0.75;;
44214;SDS011;29884;47.450;19.124;2022-12-11T04:01:06;1.98;;;0.80;;
44214;SDS011;29884;47.450;19.124;2022-12-11T04:03:33;1.75;;;0.85;;
44214;SDS011;29884;47.450;19.124;2022-12-11T04:05:58;1.50;;;0.80;;
44214;SDS011;29884;47.450;19.124;2022-12-11T04:08:24;1.40;;;0.80;;
44214;SDS011;29884;47.450;19.124;2022-12-11T04:10:50;1.20;;;0.70;;
44214;SDS011;29884;47.450;19.124;2022-12-11T04:13:36;2.13;;;0.90;;
44214;SDS011;29884;47.450;19.124;2022-12-11T04:16:02;2.10;;;0.90;;
44214;SDS011;29884;47.450;19.124;2022-12-11T04:18:27;1.67;;;0.88;;
44214;SDS011;29884;47.450;19.124;2022-12-11T04:21:12;1.55;;;0.77;;
44214;SDS011;29884;47.450;19.124;2022-12-11T04:23:56;2.00;;;0.93;;
44214;SDS011;29884;47.450;19.124;2022-12-11T04:26:41;1.83;;;0.90;;
44214;SDS011;29884;47.450;19.124;2022-12-11T04:29:11;2.03;;;0.82;;
44214;SDS011;29884;47.450;19.124;2022-12-11T04:31:37;1.80;;;0.90;;
44214;SDS011;29884;47.450;19.124;2022-12-11T04:34:03;2.05;;;0.90;;
44214;SDS011;29884;47.450;19.124;2022-12-11T04:36:29;2.15;;;1.00;;
44214;SDS011;29884;47.450;19.124;2022-12-11T04:38:55;1.60;;;0.88;;
44214;SDS011;29884;47.450;19.124;2022-12-11T04:41:21;2.85;;;1.10;;
44214;SDS011;29884;47.450;19.124;2022-12-11T04:43:46;1.58;;;0.98;;
44214;SDS011;29884;47.450;19.124;2022-12-11T04:46:14;1.80;;;1.10;;
44214;SDS011;29884;47.450;19.124;2022-12-11T04:48:41;1.65;;;1.02;;
44214;SDS011;29884;47.450;19.124;2022-12-11T04:51:08;2.30;;;0.98;;
44214;SDS011;29884;47.450;19.124;2022-12-11T04:53:34;3.05;;;1.25;;
44214;SDS011;29884;47.450;19.124;2022-12-11T04:56:00;2.70;;;1.23;;
44214;SDS011;29884;47.450;19.124;2022-12-11T04:58:28;3.47;;;1.52;;
44214;SDS011;29884;47.450;19.124;2022-12-11T05:00:54;2.92;;;1.50;;
44214;SDS011;29884;47.450;19.124;2022-12-11T05:03:20;4.90;;;1.55;;
44214;SDS011;29884;47.450;19.124;2022-12-11T05:05:47;3.33;;;1.98;;
44214;SDS011;29884;47.450;19.124;2022-12-11T05:08:14;4.65;;;2.22;;
44214;SDS011;29884;47.450;19.124;2022-12-11T05:10:41;3.67;;;1.75;;
44214;SDS011;29884;47.450;19.124;2022-12-11T05:13:07;3.72;;;1.60;;
44214;SDS011;29884;47.450;19.124;2022-12-11T05:15:32;4.07;;;1.80;;
44214;SDS011;29884;47.450;19.124;2022-12-11T05:17:58;3.80;;;2.00;;
44214;SDS011;29884;47.450;19.124;2022-12-11T05:20:23;3.72;;;1.92;;
44214;SDS011;29884;47.450;19.124;2022-12-11T05:22:49;5.28;;;2.25;;
44214;SDS011;29884;47.450;19.124;2022-12-11T05:25:15;3.78;;;2.10;;
44214;SDS011;29884;47.450;19.124;2022-12-11T05:27:40;3.17;;;1.90;;
44214;SDS011;29884;47.450;19.124;2022-12-11T05:30:06;3.67;;;1.85;;
44214;SDS011;29884;47.450;19.124;2022-12-11T05:32:34;3.75;;;2.10;;
44214;SDS011;29884;47.450;19.124;2022-12-11T05:34:59;3.40;;;2.10;;
44214;SDS011;29884;47.450;19.124;2022-12-11T05:37:25;3.97;;;1.80;;
44214;SDS011;29884;47.450;19.124;2022-12-11T05:39:51;3.30;;;1.95;;
44214;SDS011;29884;47.450;19.124;2022-12-11T05:42:16;4.38;;;2.22;;
44214;SDS011;29884;47.450;19.124;2022-12-11T05:44:42;4.25;;;1.95;;
44214;SDS011;29884;47.450;19.124;2022-12-11T05:47:07;3.13;;;1.67;;
44214;SDS011;29884;47.450;19.124;2022-12-11T05:49:33;4.13;;;2.30;;
44214;SDS011;29884;47.450;19.124;2022-12-11T05:51:59;4.40;;;2.17;;
44214;SDS011;29884;47.450;19.124;2022-12-11T05:54:25;4.05;;;2.08;;
44214;SDS011;29884;47.450;19.124;2022-12-11T05:56:50;3.95;;;2.20;;
44214;SDS011;29884;47.450;19.124;2022-12-11T05:59:16;6.70;;;2.22;;
44214;SDS011;29884;47.450;19.124;2022-12-11T06:01:43;3.88;;;2.03;;
44214;SDS011;29884;47.450;19.124;2022-12-11T06:04:10;4.15;;;1.92;;
44214;SDS011;29884;47.450;19.124;2022-12-11T06:06:37;5.22;;;2.58;;
44214;SDS011;29884;47.450;19.124;2022-12-11T06:09:04;4.47;;;2.33;;
44214;SDS011;29884;47.450;19.124;2022-12-11T06:11:31;3.10;;;1.85;;
44214;SDS011;29884;47.450;19.124;2022-12-11T06:13:58;6.75;;;2.55;;
44214;SDS011;29884;47.450;19.124;2022-12-11T06:16:25;4.68;;;2.63;;
44214;SDS011;29884;47.450;19.124;2022-12-11T06:18:50;7.80;;;3.30;;
44214;SDS011;29884;47.450;19.124;2022-12-11T06:21:17;9.82;;;2.97;;
44214;SDS011;29884;47.450;19.124;2022-12-11T06:23:45;4.53;;;2.08;;
44214;SDS011;29884;47.450;19.124;2022-12-11T06:26:12;4.07;;;2.10;;
44214;SDS011;29884;47.450;19.124;2022-12-11T06:28:39;3.38;;;1.70;;
44214;SDS011;29884;47.450;19.124;2022-12-11T06:31:05;3.72;;;2.17;;
44214;SDS011;29884;47.450;19.124;2022-12-11T06:33:31;4.50;;;2.20;;
44214;SDS011;29884;47.450;19.124;2022-12-11T06:36:01;4.00;;;2.03;;
44214;SDS011;29884;47.450;19.124;2022-12-11T06:38:31;3.58;;;1.60;;
44214;SDS011;29884;47.450;19.124;2022-12-11T06:40:57;2.97;;;1.48;;
44214;SDS011;29884;47.450;19.124;2022-12-11T06:43:25;2.65;;;1.73;;
44214;SDS011;29884;47.450;19.124;2022-12-11T06:45:50;3.40;;;2.15;;
44214;SDS011;29884;47.450;19.124;2022-12-11T06:48:17;3.53;;;1.70;;
44214;SDS011;29884;47.450;19.124;2022-12-11T06:50:43;3.90;;;1.98;;
44214;SDS011;29884;47.450;19.124;2022-12-11T06:53:10;3.28;;;1.85;;
44214;SDS011;29884;47.450;19.124;2022-12-11T06:55:36;4.38;;;1.95;;
44214;SDS011;29884;47.450;19.124;2022-12-11T06:58:04;3.50;;;2.03;;
44214;SDS011;29884;47.450;19.124;2022-12-11T07:00:29;4.50;;;2.30;;
44214;SDS011;29884;47.450;19.124;2022-12-11T07:02:55;4.32;;;1.90;;
44214;SDS011;29884;47.450;19.124;2022-12-11T07:05:21;4.68;;;2.45;;
44214;SDS011;29884;47.450;19.124;2022-12-11T07:07:47;3.38;;;1.65;;
44214;SDS011;29884;47.450;19.124;2022-12-11T07:10:13;7.30;;;3.33;;
44214;SDS011;29884;47.450;19.124;2022-12-11T07:12:39;3.92;;;2.10;;
44214;SDS011;29884;47.450;19.124;2022-12-11T07:15:05;3.72;;;1.65;;
44214;SDS011;29884;47.450;19.124;2022-12-11T07:17:31;3.40;;;1.85;;
44214;SDS011;29884;47.450;19.124;2022-12-11T07:19:57;3.58;;;2.03;;
44214;SDS011;29884;47.450;19.124;2022-12-11T07:22:22;4.63;;;2.20;;
44214;SDS011;29884;47.450;19.124;2022-12-11T07:24:48;5.10;;;2.22;;
44214;SDS011;29884;47.450;19.124;2022-12-11T07:27:14;4.35;;;2.05;;
44214;SDS011;29884;47.450;19.124;2022-12-11T07:29:39;4.35;;;2.53;;
44214;SDS011;29884;47.450;19.124;2022-12-11T07:32:05;3.65;;;1.85;;
44214;SDS011;29884;47.450;19.124;2022-12-11T07:34:31;4.85;;;1.77;;
44214;SDS011;29884;47.450;19.124;2022-12-11T07:36:56;3.20;;;2.00;;
44214;SDS011;29884;47.450;19.124;2022-12-11T07:39:22;3.38;;;1.73;;
44214;SDS011;29884;47.450;19.124;2022-12-11T07:41:48;3.63;;;2.08;;
44214;SDS011;29884;47.450;19.124;2022-12-11T07:44:14;6.55;;;3.17;;
44214;SDS011;29884;47.450;19.124;2022-12-11T07:46:39;3.30;;;2.00;;
44214;SDS011;29884;47.450;19.124;2022-12-11T07:49:05;3.63;;;1.70;;
44214;SDS011;29884;47.450;19.124;2022-12-11T07:51:32;5.80;;;2.67;;
44214;SDS011;29884;47.450;19.124;2022-12-11T07:54:20;4.47;;;1.90;;
44214;SDS011;29884;47.450;19.124;2022-12-11T07:56:46;3.40;;;1.50;;
44214;SDS011;29884;47.450;19.124;2022-12-11T07:59:12;3.28;;;1.75;;
44214;SDS011;29884;47.450;19.124;2022-12-11T08:01:38;3.72;;;2.03;;
44214;SDS011;29884;47.450;19.124;2022-12-11T08:04:05;4.25;;;2.28;;
44214;SDS011;29884;47.450;19.124;2022-12-11T08:06:33;3.15;;;1.80;;
44214;SDS011;29884;47.450;19.124;2022-12-11T08:09:01;4.28;;;2.00;;
44214;SDS011;29884;47.450;19.124;2022-12-11T08:11:28;4.28;;;1.85;;
44214;SDS011;29884;47.450;19.124;2022-12-11T08:13:54;3.63;;;1.77;;
44214;SDS011;29884;47.450;19.124;2022-12-11T08:16:20;4.15;;;1.60;;
44214;SDS011;29884;47.450;19.124;2022-12-11T08:18:46;3.22;;;1.33;;
44214;SDS011;29884;47.450;19.124;2022-12-11T08:21:14;4.72;;;1.60;;
44214;SDS011;29884;47.450;19.124;2022-12-11T08:23:47;4.07;;;1.70;;
44214;SDS011;29884;47.450;19.124;2022-12-11T08:26:18;3.15;;;1.60;;
44214;SDS011;29884;47.450;19.124;2022-12-11T08:28:52;3.28;;;1.80;;
44214;SDS011;29884;47.450;19.124;2022-12-11T08:31:18;4.65;;;1.63;;
44214;SDS011;29884;47.450;19.124;2022-12-11T08:33:44;2.33;;;1.17;;
44214;SDS011;29884;47.450;19.124;2022-12-11T08:36:11;4.07;;;1.40;;
44214;SDS011;29884;47.450;19.124;2022-12-11T08:38:39;2.70;;;1.40;;
44214;SDS011;29884;47.450;19.124;2022-12-11T08:41:12;2.35;;;1.20;;
44214;SDS011;29884;47.450;19.124;2022-12-11T08:43:39;2.13;;;1.10;;
44214;SDS011;29884;47.450;19.124;2022-12-11T08:46:05;2.53;;;1.20;;
44214;SDS011;29884;47.450;19.124;2022-12-11T08:48:35;2.05;;;1.25;;
44214;SDS011;29884;47.450;19.124;2022-12-11T08:51:04;2.30;;;1.10;;
44214;SDS011;29884;47.450;19.124;2022-12-11T08:53:31;2.38;;;1.15;;
44214;SDS011;29884;47.450;19.124;2022-12-11T08:56:01;1.75;;;1.00;;
44214;SDS011;29884;47.450;19.124;2022-12-11T08:58:28;2.10;;;1.10;;
44214;SDS011;29884;47.450;19.124;2022-12-11T09:00:54;2.65;;;1.40;;
44214;SDS011;29884;47.450;19.124;2022-12-11T09:03:20;3.67;;;1.20;;
44214;SDS011;29884;47.450;19.124;2022-12-11T09:05:46;2.83;;;1.23;;
44214;SDS011;29884;47.450;19.124;2022-12-11T09:08:11;2.15;;;1.00;;
44214;SDS011;29884;47.450;19.124;2022-12-11T09:10:37;1.45;;;0.90;;
44214;SDS011;29884;47.450;19.124;2022-12-11T09:13:03;1.70;;;0.80;;
44214;SDS011;29884;47.450;19.124;2022-12-11T09:15:29;3.22;;;1.38;;
44214;SDS011;29884;47.450;19.124;2022-12-11T09:17:54;2.00;;;0.90;;
44214;SDS011;29884;47.450;19.124;2022-12-11T09:20:20;2.92;;;1.20;;
44214;SDS011;29884;47.450;19.124;2022-12-11T09:22:46;1.90;;;1.10;;
44214;SDS011;29884;47.450;19.124;2022-12-11T09:25:11;3.45;;;1.65;;
44214;SDS011;29884;47.450;19.124;2022-12-11T09:27:37;2.20;;;1.35;;
44214;SDS011;29884;47.450;19.124;2022-12-11T09:30:03;2.10;;;1.20;;
44214;SDS011;29884;47.450;19.124;2022-12-11T09:32:29;2.10;;;1.10;;
44214;SDS011;29884;47.450;19.124;2022-12-11T09:34:55;1.55;;;1.00;;
44214;SDS011;29884;47.450;19.124;2022-12-11T09:37:20;2.95;;;0.82;;
44214;SDS011;29884;47.450;19.124;2022-12-11T09:39:46;3.15;;;1.00;;
44214;SDS011;29884;47.450;19.124;2022-12-11T09:45:09;2.65;;;1.08;;
44214;SDS011;29884;47.450;19.124;2022-12-11T09:47:39;1.60;;;0.80;;
44214;SDS011;29884;47.450;19.124;2022-12-11T09:55:15;2.03;;;1.00;;
44214;SDS011;29884;47.450;19.124;2022-12-11T09:58:02;1.63;;;0.80;;
44214;SDS011;29884;47.450;19.124;2022-12-11T10:00:39;1.75;;;0.88;;
44214;SDS011;29884;47.450;19.124;2022-12-11T10:03:24;4.15;;;1.30;;
44214;SDS011;29884;47.450;19.124;2022-12-11T10:06:02;2.42;;;1.00;;
44214;SDS011;29884;47.450;19.124;2022-12-11T10:16:53;1.90;;;0.80;;
44214;SDS011;29884;47.450;19.124;2022-12-11T10:19:38;2.60;;;0.98;;
44214;SDS011;29884;47.450;19.124;2022-12-11T10:22:08;2.22;;;1.10;;
44214;SDS011;29884;47.450;19.124;2022-12-11T10:27:27;2.67;;;1.35;;
44214;SDS011;29884;47.450;19.124;2022-12-11T10:30:12;3.07;;;1.20;;
44214;SDS011;29884;47.450;19.124;2022-12-11T10:33:24;2.15;;;1.13;;
44214;SDS011;29884;47.450;19.124;2022-12-11T10:35:46;2.42;;;1.05;;
44214;SDS011;29884;47.450;19.124;2022-12-11T10:40:54;1.88;;;0.93;;
44214;SDS011;29884;47.450;19.124;2022-12-11T10:43:38;1.98;;;1.10;;
44214;SDS011;29884;47.450;19.124;2022-12-11T10:48:47;3.58;;;1.60;;
44214;SDS011;29884;47.450;19.124;2022-12-11T10:51:17;2.88;;;1.23;;
44214;SDS011;29884;47.450;19.124;2022-12-11T10:53:48;2.88;;;1.02;;
44214;SDS011;29884;47.450;19.124;2022-12-11T10:56:27;3.03;;;1.10;;
44214;SDS011;29884;47.450;19.124;2022-12-11T10:58:55;1.85;;;1.10;;
44214;SDS011;29884;47.450;19.124;2022-12-11T11:01:26;4.05;;;1.60;;
44214;SDS011;29884;47.450;19.124;2022-12-11T11:03:56;3.67;;;1.38;;
44214;SDS011;29884;47.450;19.124;2022-12-11T11:06:37;2.72;;;1.20;;
44214;SDS011;29884;47.450;19.124;2022-12-11T11:09:03;3.03;;;1.20;;
44214;SDS011;29884;47.450;19.124;2022-12-11T11:11:49;3.75;;;1.50;;
44214;SDS011;29884;47.450;19.124;2022-12-11T11:16:43;5.28;;;1.60;;
44214;SDS011;29884;47.450;19.124;2022-12-11T11:19:16;2.10;;;1.20;;
44214;SDS011;29884;47.450;19.124;2022-12-11T11:21:46;3.35;;;1.25;;
44214;SDS011;29884;47.450;19.124;2022-12-11T11:24:57;3.88;;;1.50;;
44214;SDS011;29884;47.450;19.124;2022-12-11T11:29:55;3.33;;;1.50;;
44214;SDS011;29884;47.450;19.124;2022-12-11T11:37:43;4.18;;;1.88;;
44214;SDS011;29884;47.450;19.124;2022-12-11T11:40:13;2.67;;;1.20;;
44214;SDS011;29884;47.450;19.124;2022-12-11T11:45:49;2.38;;;1.15;;
44214;SDS011;29884;47.450;19.124;2022-12-11T11:48:30;2.88;;;1.48;;
44214;SDS011;29884;47.450;19.124;2022-12-11T11:51:18;3.85;;;1.42;;
44214;SDS011;29884;47.450;19.124;2022-12-11T11:53:55;2.63;;;1.30;;
44214;SDS011;29884;47.450;19.124;2022-12-11T11:56:27;3.45;;;1.73;;
44214;SDS011;29884;47.450;19.124;2022-12-11T12:01:45;2.53;;;1.30;;
44214;SDS011;29884;47.450;19.124;2022-12-11T12:04:11;2.35;;;1.20;;
44214;SDS011;29884;47.450;19.124;2022-12-11T12:09:29;2.60;;;1.42;;
44214;SDS011;29884;47.450;19.124;2022-12-11T12:15:28;1.95;;;0.95;;
44214;SDS011;29884;47.450;19.124;2022-12-11T12:18:14;3.35;;;1.45;;
44214;SDS011;29884;47.450;19.124;2022-12-11T12:29:09;2.65;;;1.60;;
44214;SDS011;29884;47.450;19.124;2022-12-11T12:32:02;2.50;;;1.52;;
44214;SDS011;29884;47.450;19.124;2022-12-11T12:43:04;3.58;;;1.77;;
44214;SDS011;29884;47.450;19.124;2022-12-11T12:48:27;3.80;;;1.45;;
44214;SDS011;29884;47.450;19.124;2022-12-11T12:50:53;2.47;;;1.60;;
44214;SDS011;29884;47.450;19.124;2022-12-11T12:53:23;3.88;;;1.50;;
44214;SDS011;29884;47.450;19.124;2022-12-11T12:55:56;3.45;;;1.42;;
44214;SDS011;29884;47.450;19.124;2022-12-11T12:58:27;3.03;;;1.80;;
44214;SDS011;29884;47.450;19.124;2022-12-11T13:01:06;4.68;;;2.83;;
44214;SDS011;29884;47.450;19.124;2022-12-11T13:03:34;2.63;;;1.73;;
44214;SDS011;29884;47.450;19.124;2022-12-11T13:06:12;3.03;;;1.73;;
44214;SDS011;29884;47.450;19.124;2022-12-11T13:08:56;3.05;;;1.90;;
44214;SDS011;29884;47.450;19.124;2022-12-11T13:11:30;4.05;;;2.40;;
44214;SDS011;29884;47.450;19.124;2022-12-11T13:14:05;3.47;;;1.77;;
44214;SDS011;29884;47.450;19.124;2022-12-11T13:16:47;2.90;;;1.55;;
44214;SDS011;29884;47.450;19.124;2022-12-11T13:19:15;2.53;;;1.40;;
44214;SDS011;29884;47.450;19.124;2022-12-11T13:26:45;3.28;;;1.75;;
44214;SDS011;29884;47.450;19.124;2022-12-11T13:29:29;4.38;;;2.15;;
44214;SDS011;29884;47.450;19.124;2022-12-11T13:31:57;3.88;;;1.90;;
44214;SDS011;29884;47.450;19.124;2022-12-11T13:34:24;3.47;;;1.70;;
44214;SDS011;29884;47.450;19.124;2022-12-11T13:36:53;3.63;;;1.73;;
44214;SDS011;29884;47.450;19.124;2022-12-11T13:41:49;4.22;;;1.92;;
44214;SDS011;29884;47.450;19.124;2022-12-11T13:44:28;3.90;;;1.85;;
44214;SDS011;29884;47.450;19.124;2022-12-11T13:46:58;3.70;;;1.80;;
44214;SDS011;29884;47.450;19.124;2022-12-11T13:49:31;4.97;;;2.65;;
44214;SDS011;29884;47.450;19.124;2022-12-11T13:52:00;3.75;;;1.88;;
44214;SDS011;29884;47.450;19.124;2022-12-11T13:54:26;3.90;;;2.35;;
44214;SDS011;29884;47.450;19.124;2022-12-11T13:57:16;4.13;;;2.08;;
44214;SDS011;29884;47.450;19.124;2022-12-11T13:59:49;4.22;;;2.15;;
44214;SDS011;29884;47.450;19.124;2022-12-11T14:02:32;4.78;;;2.45;;
44214;SDS011;29884;47.450;19.124;2022-12-11T14:05:04;5.32;;;2.35;;
44214;SDS011;29884;47.450;19.124;2022-12-11T14:07:34;4.95;;;2.47;;
44214;SDS011;29884;47.450;19.124;2022-12-11T14:10:07;4.35;;;2.67;;
44214;SDS011;29884;47.450;19.124;2022-12-11T14:12:44;6.65;;;2.15;;
44214;SDS011;29884;47.450;19.124;2022-12-11T14:15:32;4.28;;;2.20;;
44214;SDS011;29884;47.450;19.124;2022-12-11T14:18:00;5.13;;;2.50;;
44214;SDS011;29884;47.450;19.124;2022-12-11T14:20:27;6.20;;;2.50;;
44214;SDS011;29884;47.450;19.124;2022-12-11T14:25:53;4.70;;;2.53;;
44214;SDS011;29884;47.450;19.124;2022-12-11T14:28:21;4.95;;;2.63;;
44214;SDS011;29884;47.450;19.124;2022-12-11T14:30:51;5.70;;;2.53;;
44214;SDS011;29884;47.450;19.124;2022-12-11T14:33:24;5.40;;;2.60;;
44214;SDS011;29884;47.450;19.124;2022-12-11T14:36:02;5.15;;;2.58;;
44214;SDS011;29884;47.450;19.124;2022-12-11T14:38:34;5.30;;;2.95;;
44214;SDS011;29884;47.450;19.124;2022-12-11T14:41:26;6.25;;;3.30;;
44214;SDS011;29884;47.450;19.124;2022-12-11T14:44:06;5.57;;;3.38;;
44214;SDS011;29884;47.450;19.124;2022-12-11T14:49:11;7.07;;;3.50;;
44214;SDS011;29884;47.450;19.124;2022-12-11T14:51:56;4.55;;;2.75;;
44214;SDS011;29884;47.450;19.124;2022-12-11T14:56:57;5.72;;;3.00;;
44214;SDS011;29884;47.450;19.124;2022-12-11T14:59:25;6.10;;;3.20;;
44214;SDS011;29884;47.450;19.124;2022-12-11T15:01:58;6.47;;;3.05;;
44214;SDS011;29884;47.450;19.124;2022-12-11T15:04:29;6.38;;;4.07;;
44214;SDS011;29884;47.450;19.124;2022-12-11T15:06:58;6.63;;;4.20;;
44214;SDS011;29884;47.450;19.124;2022-12-11T15:11:50;7.78;;;4.22;;
44214;SDS011;29884;47.450;19.124;2022-12-11T15:14:17;7.57;;;4.35;;
44214;SDS011;29884;47.450;19.124;2022-12-11T15:16:48;6.32;;;3.75;;
44214;SDS011;29884;47.450;19.124;2022-12-11T15:19:20;7.22;;;4.40;;
44214;SDS011;29884;47.450;19.124;2022-12-11T15:21:49;7.18;;;3.95;;
44214;SDS011;29884;47.450;19.124;2022-12-11T15:32:39;8.52;;;4.82;;
44214;SDS011;29884;47.450;19.124;2022-12-11T15:35:24;7.32;;;4.20;;
44214;SDS011;29884;47.450;19.124;2022-12-11T15:37:52;7.95;;;4.18;;
44214;SDS011;29884;47.450;19.124;2022-12-11T15:40:20;7.15;;;4.05;;
44214;SDS011;29884;47.450;19.124;2022-12-11T15:42:46;7.97;;;3.38;;
44214;SDS011;29884;47.450;19.124;2022-12-11T15:45:19;7.00;;;3.83;;
44214;SDS011;29884;47.450;19.124;2022-12-11T15:47:48;7.25;;;4.03;;
44214;SDS011;29884;47.450;19.124;2022-12-11T15:52:40;8.43;;;4.32;;
44214;SDS011;29884;47.450;19.124;2022-12-11T15:55:07;6.60;;;3.75;;
44214;SDS011;29884;47.450;19.124;2022-12-11T15:57:33;10.02;;;4.15;;
44214;SDS011;29884;47.450;19.124;2022-12-11T15:59:59;6.70;;;3.80;;
44214;SDS011;29884;47.450;19.124;2022-12-11T16:02:25;7.53;;;3.83;;
44214;SDS011;29884;47.450;19.124;2022-12-11T16:04:52;8.23;;;4.30;;
44214;SDS011;29884;47.450;19.124;2022-12-11T16:07:21;7.35;;;3.80;;
44214;SDS011;29884;47.450;19.124;2022-12-11T16:09:49;6.63;;;3.92;;
44214;SDS011;29884;47.450;19.124;2022-12-11T16:12:15;7.18;;;3.80;;
44214;SDS011;29884;47.450;19.124;2022-12-11T16:14:42;6.93;;;3.95;;
44214;SDS011;29884;47.450;19.124;2022-12-11T16:17:09;8.23;;;4.40;;
44214;SDS011;29884;47.450;19.124;2022-12-11T16:19:37;7.80;;;4.18;;
44214;SDS011;29884;47.450;19.124;2022-12-11T16:22:03;7.70;;;3.65;;
44214;SDS011;29884;47.450;19.124;2022-12-11T16:24:31;8.80;;;4.10;;
44214;SDS011;29884;47.450;19.124;2022-12-11T16:26:57;6.10;;;3.75;;
44214;SDS011;29884;47.450;19.124;2022-12-11T16:29:23;6.30;;;3.80;;
44214;SDS011;29884;47.450;19.124;2022-12-11T16:31:49;8.15;;;4.05;;
44214;SDS011;29884;47.450;19.124;2022-12-11T16:34:14;6.88;;;3.90;;
44214;SDS011;29884;47.450;19.124;2022-12-11T16:36:40;6.18;;;3.72;;
44214;SDS011;29884;47.450;19.124;2022-12-11T16:39:06;7.93;;;4.57;;
44214;SDS011;29884;47.450;19.124;2022-12-11T16:41:32;6.65;;;3.92;;
44214;SDS011;29884;47.450;19.124;2022-12-11T16:43:59;6.15;;;3.90;;